UAL659 KPHX-KLAX
Flight info
| Callsign | UAL659 |
|---|---|
| Flight time | 1h 5m |
| Altitude | 36000 |
| Route | KEENS3 WLVRN ESTWD HLYWD1 |
| Aircraft | B738/M-SDE2E3FGHIRWXY/LB1 |
Departure
| Time | 2026-04-26 04:54 |
|---|---|
| Airport | Phoenix Sky Harbor International Airport (KPHX) |
Arrival
| Time | 2026-04-26 06:00 |
|---|---|
| Airport | Los Angeles International Airport (KLAX) |
| Time | Latitude | Longitude | Altitude | Speed | Heading |
|---|---|---|---|---|---|
| 2026-04-26 04:39 | 33.43406 | -112.00138 | 1116 ft | 0 kts | 270° |
| 2026-04-26 04:45 | 33.43409 | -112.00119 | 1120 ft | 2 kts | 234° |
| 2026-04-26 04:45 | 33.43421 | -112.00107 | 1114 ft | 2 kts | 206° |
| 2026-04-26 04:45 | 33.43437 | -112.00103 | 1115 ft | 2 kts | 181° |
| 2026-04-26 04:45 | 33.43441 | -112.00103 | 1116 ft | 0 kts | 181° |
| 2026-04-26 04:49 | 33.43434 | -112.00102 | 1114 ft | 5 kts | 179° |
| 2026-04-26 04:49 | 33.43364 | -112.00098 | 1121 ft | 15 kts | 168° |
| 2026-04-26 04:49 | 33.43237 | -112.00048 | 1123 ft | 22 kts | 150° |
| 2026-04-26 04:49 | 33.43213 | -111.99877 | 1119 ft | 21 kts | 89° |
| 2026-04-26 04:50 | 33.43214 | -111.99702 | 1119 ft | 21 kts | 90° |
| 2026-04-26 04:50 | 33.43213 | -111.99532 | 1119 ft | 20 kts | 90° |
| 2026-04-26 04:50 | 33.43211 | -111.99392 | 1122 ft | 8 kts | 99° |
| 2026-04-26 04:50 | 33.43207 | -111.99377 | 1122 ft | 0 kts | 115° |
| 2026-04-26 04:52 | 33.43205 | -111.99373 | 1123 ft | 4 kts | 115° |
| 2026-04-26 04:52 | 33.43159 | -111.99342 | 1135 ft | 12 kts | 174° |
| 2026-04-26 04:52 | 33.43105 | -111.99383 | 1131 ft | 1 kts | 267° |
| 2026-04-26 04:53 | 33.43105 | -111.99388 | 1135 ft | 8 kts | 267° |
| 2026-04-26 04:54 | 33.43104 | -111.99766 | 1131 ft | 82 kts | 270° |
| 2026-04-26 04:54 | 33.43104 | -112.00723 | 1130 ft | 145 kts | 270° |
| 2026-04-26 04:54 | 33.43102 | -112.02098 | 1385 ft | 178 kts | 269° |
| 2026-04-26 04:54 | 33.43086 | -112.03703 | 1825 ft | 207 kts | 268° |
| 2026-04-26 04:55 | 33.43035 | -112.05527 | 2209 ft | 225 kts | 268° |
| 2026-04-26 04:55 | 33.42884 | -112.07407 | 2878 ft | 231 kts | 255° |
| 2026-04-26 04:55 | 33.42307 | -112.09326 | 3252 ft | 257 kts | 248° |
| 2026-04-26 04:55 | 33.41659 | -112.11318 | 4068 ft | 261 kts | 249° |
| 2026-04-26 04:56 | 33.41017 | -112.13346 | 5044 ft | 260 kts | 248° |
| 2026-04-26 04:56 | 33.40389 | -112.15359 | 6060 ft | 258 kts | 247° |
| 2026-04-26 04:56 | 33.39760 | -112.17392 | 6857 ft | 263 kts | 247° |
| 2026-04-26 04:56 | 33.39210 | -112.19490 | 7701 ft | 269 kts | 259° |
| 2026-04-26 04:57 | 33.39296 | -112.21758 | 8556 ft | 277 kts | 274° |
| 2026-04-26 04:57 | 33.39625 | -112.24053 | 9355 ft | 283 kts | 275° |
| 2026-04-26 04:57 | 33.39987 | -112.26389 | 10142 ft | 286 kts | 275° |
| 2026-04-26 04:57 | 33.40359 | -112.28784 | 10593 ft | 304 kts | 275° |
| 2026-04-26 04:58 | 33.40752 | -112.31378 | 10775 ft | 328 kts | 275° |
| 2026-04-26 04:58 | 33.41170 | -112.34154 | 11083 ft | 346 kts | 276° |
| 2026-04-26 04:58 | 33.41601 | -112.37006 | 11770 ft | 350 kts | 276° |
| 2026-04-26 04:58 | 33.42034 | -112.39872 | 12633 ft | 349 kts | 275° |
| 2026-04-26 04:59 | 33.42462 | -112.42735 | 13465 ft | 350 kts | 275° |
| 2026-04-26 04:59 | 33.42889 | -112.45616 | 14165 ft | 352 kts | 275° |
| 2026-04-26 04:59 | 33.43310 | -112.48464 | 14944 ft | 351 kts | 275° |
| 2026-04-26 04:59 | 33.43735 | -112.51354 | 15649 ft | 354 kts | 275° |
| 2026-04-26 05:00 | 33.44163 | -112.54268 | 16329 ft | 356 kts | 275° |
| 2026-04-26 05:00 | 33.44594 | -112.57205 | 17025 ft | 358 kts | 275° |
| 2026-04-26 05:00 | 33.45014 | -112.60150 | 17677 ft | 360 kts | 272° |
| 2026-04-26 05:00 | 33.45192 | -112.63128 | 18312 ft | 358 kts | 266° |
| 2026-04-26 05:01 | 33.45195 | -112.66082 | 18899 ft | 359 kts | 265° |
| 2026-04-26 05:01 | 33.45175 | -112.69080 | 19503 ft | 360 kts | 265° |
| 2026-04-26 05:01 | 33.45181 | -112.72080 | 20112 ft | 361 kts | 265° |
| 2026-04-26 05:01 | 33.45210 | -112.75098 | 20699 ft | 363 kts | 266° |
| 2026-04-26 05:02 | 33.45252 | -112.78135 | 21268 ft | 365 kts | 267° |
| 2026-04-26 05:02 | 33.45650 | -112.81173 | 21814 ft | 377 kts | 280° |
| 2026-04-26 05:02 | 33.46590 | -112.84090 | 22358 ft | 383 kts | 284° |
| 2026-04-26 05:02 | 33.47637 | -112.87038 | 22844 ft | 386 kts | 285° |
| 2026-04-26 05:03 | 33.48706 | -112.90002 | 23306 ft | 389 kts | 285° |
| 2026-04-26 05:03 | 33.49783 | -112.92989 | 23718 ft | 390 kts | 285° |
| 2026-04-26 05:03 | 33.50853 | -112.95983 | 24150 ft | 391 kts | 284° |
| 2026-04-26 05:03 | 33.51920 | -112.98993 | 24579 ft | 392 kts | 284° |
| 2026-04-26 05:04 | 33.52982 | -113.02009 | 24976 ft | 393 kts | 284° |
| 2026-04-26 05:04 | 33.54046 | -113.05048 | 25351 ft | 396 kts | 284° |
| 2026-04-26 05:04 | 33.55117 | -113.08111 | 25528 ft | 402 kts | 283° |
| 2026-04-26 05:04 | 33.56194 | -113.11184 | 26126 ft | 397 kts | 283° |
| 2026-04-26 05:05 | 33.57243 | -113.14189 | 26604 ft | 396 kts | 283° |
| 2026-04-26 05:05 | 33.58307 | -113.17259 | 26857 ft | 401 kts | 283° |
| 2026-04-26 05:05 | 33.59379 | -113.20358 | 27142 ft | 404 kts | 283° |
| 2026-04-26 05:05 | 33.60458 | -113.23476 | 27520 ft | 405 kts | 283° |
| 2026-04-26 05:06 | 33.61542 | -113.26600 | 27906 ft | 405 kts | 283° |
| 2026-04-26 05:06 | 33.62626 | -113.29729 | 28243 ft | 407 kts | 283° |
| 2026-04-26 05:06 | 33.63716 | -113.32879 | 28567 ft | 409 kts | 283° |
| 2026-04-26 05:06 | 33.64808 | -113.36038 | 28886 ft | 410 kts | 283° |
| 2026-04-26 05:07 | 33.65900 | -113.39196 | 29332 ft | 408 kts | 283° |
| 2026-04-26 05:07 | 33.66985 | -113.42330 | 29877 ft | 404 kts | 283° |
| 2026-04-26 05:07 | 33.68059 | -113.45434 | 30488 ft | 400 kts | 282° |
| 2026-04-26 05:07 | 33.69110 | -113.48480 | 30868 ft | 399 kts | 282° |
| 2026-04-26 05:08 | 33.70169 | -113.51562 | 31185 ft | 399 kts | 282° |
| 2026-04-26 05:08 | 33.71224 | -113.54640 | 31508 ft | 398 kts | 282° |
| 2026-04-26 05:08 | 33.72277 | -113.57708 | 31883 ft | 396 kts | 282° |
| 2026-04-26 05:08 | 33.72972 | -113.59732 | 32126 ft | 395 kts | 282° |
| 2026-04-26 05:09 | 33.74016 | -113.62780 | 32452 ft | 394 kts | 281° |
| 2026-04-26 05:09 | 33.75058 | -113.65822 | 32676 ft | 393 kts | 281° |
| 2026-04-26 05:09 | 33.76095 | -113.68853 | 33029 ft | 391 kts | 281° |
| 2026-04-26 05:09 | 33.77126 | -113.71871 | 33397 ft | 390 kts | 281° |
| 2026-04-26 05:10 | 33.78154 | -113.74880 | 33746 ft | 388 kts | 281° |
| 2026-04-26 05:10 | 33.79177 | -113.77877 | 34057 ft | 387 kts | 281° |
| 2026-04-26 05:10 | 33.80196 | -113.80867 | 34310 ft | 386 kts | 281° |
| 2026-04-26 05:10 | 33.81212 | -113.83861 | 34552 ft | 386 kts | 281° |
| 2026-04-26 05:11 | 33.82224 | -113.86850 | 34805 ft | 385 kts | 281° |
| 2026-04-26 05:11 | 33.83221 | -113.89794 | 35092 ft | 384 kts | 281° |
| 2026-04-26 05:11 | 33.84230 | -113.92781 | 35303 ft | 386 kts | 281° |
| 2026-04-26 05:11 | 33.85242 | -113.95787 | 35441 ft | 388 kts | 281° |
| 2026-04-26 05:12 | 33.86256 | -113.98794 | 35664 ft | 388 kts | 281° |
| 2026-04-26 05:12 | 33.87273 | -114.01810 | 35772 ft | 390 kts | 281° |
| 2026-04-26 05:12 | 33.89315 | -114.07872 | 35759 ft | 390 kts | 282° |
| 2026-04-26 05:13 | 33.91067 | -114.13897 | 35772 ft | 375 kts | 273° |
| 2026-04-26 05:13 | 33.92076 | -114.20021 | 35775 ft | 371 kts | 272° |
| 2026-04-26 05:14 | 33.93048 | -114.26122 | 35768 ft | 371 kts | 272° |
| 2026-04-26 05:14 | 33.94051 | -114.32210 | 35777 ft | 371 kts | 272° |
| 2026-04-26 05:15 | 33.95074 | -114.38313 | 35764 ft | 372 kts | 272° |
| 2026-04-26 05:15 | 33.96100 | -114.44433 | 35769 ft | 378 kts | 273° |
| 2026-04-26 05:16 | 33.97151 | -114.50709 | 35771 ft | 386 kts | 272° |
| 2026-04-26 05:16 | 33.98222 | -114.57104 | 35774 ft | 390 kts | 273° |
| 2026-04-26 05:17 | 33.99280 | -114.63387 | 35732 ft | 373 kts | 272° |
| 2026-04-26 05:17 | 34.00294 | -114.69447 | 35756 ft | 366 kts | 272° |
| 2026-04-26 05:18 | 34.01283 | -114.75451 | 35762 ft | 365 kts | 272° |
| 2026-04-26 05:18 | 34.02264 | -114.81413 | 35767 ft | 364 kts | 272° |
| 2026-04-26 05:19 | 34.03243 | -114.87332 | 35743 ft | 352 kts | 272° |
| 2026-04-26 05:19 | 34.04186 | -114.93081 | 35759 ft | 348 kts | 272° |
| 2026-04-26 05:20 | 34.05117 | -114.98790 | 35756 ft | 347 kts | 272° |
| 2026-04-26 05:20 | 34.06047 | -115.04492 | 35770 ft | 346 kts | 272° |
| 2026-04-26 05:21 | 34.06969 | -115.10152 | 35797 ft | 348 kts | 272° |
| 2026-04-26 05:21 | 34.07910 | -115.15982 | 35784 ft | 359 kts | 272° |
| 2026-04-26 05:22 | 34.08875 | -115.21939 | 35787 ft | 363 kts | 272° |
| 2026-04-26 05:22 | 34.09846 | -115.27935 | 35777 ft | 362 kts | 272° |
| 2026-04-26 05:23 | 34.10798 | -115.33810 | 35785 ft | 353 kts | 272° |
| 2026-04-26 05:23 | 34.11732 | -115.39643 | 35782 ft | 353 kts | 272° |
| 2026-04-26 05:24 | 34.12655 | -115.45427 | 35772 ft | 353 kts | 272° |
| 2026-04-26 05:24 | 34.13582 | -115.51246 | 35789 ft | 353 kts | 272° |
| 2026-04-26 05:25 | 34.14508 | -115.57081 | 35783 ft | 354 kts | 272° |
| 2026-04-26 05:25 | 34.15433 | -115.62916 | 35772 ft | 354 kts | 272° |
| 2026-04-26 05:26 | 34.16296 | -115.68773 | 35782 ft | 351 kts | 266° |
| 2026-04-26 05:26 | 34.15901 | -115.74536 | 35658 ft | 349 kts | 258° |
| 2026-04-26 05:27 | 34.15288 | -115.80447 | 35693 ft | 359 kts | 258° |
| 2026-04-26 05:27 | 34.14699 | -115.86421 | 35826 ft | 357 kts | 258° |
| 2026-04-26 05:28 | 34.14124 | -115.92357 | 35646 ft | 351 kts | 258° |
| 2026-04-26 05:28 | 34.13841 | -115.95269 | 35353 ft | 345 kts | 258° |
| 2026-04-26 05:28 | 34.13561 | -115.98134 | 34993 ft | 342 kts | 258° |
| 2026-04-26 05:29 | 34.13283 | -116.00966 | 34627 ft | 339 kts | 258° |
| 2026-04-26 05:29 | 34.13011 | -116.03748 | 34287 ft | 336 kts | 258° |
| 2026-04-26 05:29 | 34.12737 | -116.06536 | 33936 ft | 333 kts | 258° |
| 2026-04-26 05:29 | 34.12465 | -116.09305 | 33520 ft | 331 kts | 258° |
| 2026-04-26 05:30 | 34.12194 | -116.12053 | 33053 ft | 329 kts | 257° |
| 2026-04-26 05:30 | 34.11924 | -116.14790 | 32673 ft | 326 kts | 257° |
| 2026-04-26 05:30 | 34.11656 | -116.17499 | 32270 ft | 324 kts | 257° |
| 2026-04-26 05:30 | 34.11389 | -116.20193 | 31843 ft | 322 kts | 257° |
| 2026-04-26 05:31 | 34.11124 | -116.22868 | 31444 ft | 320 kts | 257° |
| 2026-04-26 05:31 | 34.10859 | -116.25527 | 30999 ft | 318 kts | 257° |
| 2026-04-26 05:31 | 34.10593 | -116.28182 | 30484 ft | 320 kts | 258° |
| 2026-04-26 05:31 | 34.10322 | -116.30865 | 30037 ft | 322 kts | 258° |
| 2026-04-26 05:32 | 34.10045 | -116.33494 | 29685 ft | 318 kts | 258° |
| 2026-04-26 05:32 | 34.09764 | -116.36132 | 29274 ft | 315 kts | 258° |
| 2026-04-26 05:32 | 34.09482 | -116.38749 | 28835 ft | 314 kts | 258° |
| 2026-04-26 05:32 | 34.09201 | -116.41357 | 28396 ft | 312 kts | 258° |
| 2026-04-26 05:33 | 34.08923 | -116.43947 | 27992 ft | 310 kts | 258° |
| 2026-04-26 05:33 | 34.08647 | -116.46515 | 27587 ft | 308 kts | 258° |
| 2026-04-26 05:33 | 34.08370 | -116.49076 | 27188 ft | 307 kts | 258° |
| 2026-04-26 05:33 | 34.08096 | -116.51623 | 26817 ft | 306 kts | 258° |
| 2026-04-26 05:34 | 34.07822 | -116.54165 | 26429 ft | 305 kts | 258° |
| 2026-04-26 05:34 | 34.07551 | -116.56663 | 26048 ft | 303 kts | 258° |
| 2026-04-26 05:34 | 34.07278 | -116.59183 | 25672 ft | 302 kts | 259° |
| 2026-04-26 05:34 | 34.07035 | -116.61698 | 25321 ft | 301 kts | 260° |
| 2026-04-26 05:35 | 34.06806 | -116.64205 | 24994 ft | 300 kts | 260° |
| 2026-04-26 05:35 | 34.06578 | -116.66693 | 24654 ft | 298 kts | 260° |
| 2026-04-26 05:35 | 34.06352 | -116.69173 | 24303 ft | 297 kts | 260° |
| 2026-04-26 05:35 | 34.06125 | -116.71644 | 23968 ft | 295 kts | 260° |
| 2026-04-26 05:36 | 34.05897 | -116.74110 | 23927 ft | 296 kts | 260° |
| 2026-04-26 05:36 | 34.05668 | -116.76567 | 23900 ft | 290 kts | 260° |
| 2026-04-26 05:36 | 34.05447 | -116.78946 | 23841 ft | 281 kts | 259° |
| 2026-04-26 05:36 | 34.05233 | -116.81241 | 23624 ft | 277 kts | 259° |
| 2026-04-26 05:37 | 34.05012 | -116.83569 | 22900 ft | 287 kts | 260° |
| 2026-04-26 05:37 | 34.04776 | -116.86041 | 22028 ft | 302 kts | 260° |
| 2026-04-26 05:37 | 34.04535 | -116.88568 | 21692 ft | 302 kts | 261° |
| 2026-04-26 05:37 | 34.04263 | -116.91047 | 21483 ft | 295 kts | 259° |
| 2026-04-26 05:38 | 34.03939 | -116.93481 | 21154 ft | 293 kts | 259° |
| 2026-04-26 05:38 | 34.03611 | -116.95909 | 20733 ft | 294 kts | 259° |
| 2026-04-26 05:38 | 34.03289 | -116.98339 | 20361 ft | 293 kts | 259° |
| 2026-04-26 05:38 | 34.02971 | -117.00761 | 20037 ft | 292 kts | 260° |
| 2026-04-26 05:39 | 34.02656 | -117.03176 | 19700 ft | 291 kts | 260° |
| 2026-04-26 05:39 | 34.02362 | -117.05588 | 19338 ft | 291 kts | 261° |
| 2026-04-26 05:39 | 34.02078 | -117.08002 | 18984 ft | 290 kts | 261° |
| 2026-04-26 05:39 | 34.01797 | -117.10407 | 18636 ft | 289 kts | 261° |
| 2026-04-26 05:40 | 34.01514 | -117.12810 | 18312 ft | 288 kts | 261° |
| 2026-04-26 05:40 | 34.01232 | -117.15204 | 17941 ft | 288 kts | 261° |
| 2026-04-26 05:40 | 34.00953 | -117.17554 | 17582 ft | 286 kts | 261° |
| 2026-04-26 05:40 | 34.00670 | -117.19922 | 17266 ft | 284 kts | 261° |
| 2026-04-26 05:41 | 34.00388 | -117.22286 | 16888 ft | 283 kts | 261° |
| 2026-04-26 05:41 | 34.00108 | -117.24633 | 16540 ft | 282 kts | 261° |
| 2026-04-26 05:41 | 33.99828 | -117.26965 | 16164 ft | 281 kts | 261° |
| 2026-04-26 05:41 | 33.99549 | -117.29290 | 15826 ft | 279 kts | 261° |
| 2026-04-26 05:42 | 33.99271 | -117.31608 | 15468 ft | 279 kts | 261° |
| 2026-04-26 05:42 | 33.99000 | -117.33916 | 15159 ft | 278 kts | 261° |
| 2026-04-26 05:42 | 33.98733 | -117.36191 | 14846 ft | 277 kts | 260° |
| 2026-04-26 05:42 | 33.98464 | -117.38483 | 14496 ft | 276 kts | 260° |
| 2026-04-26 05:43 | 33.98195 | -117.40770 | 14159 ft | 276 kts | 260° |
| 2026-04-26 05:43 | 33.97926 | -117.43059 | 13853 ft | 274 kts | 260° |
| 2026-04-26 05:43 | 33.97656 | -117.45339 | 13494 ft | 274 kts | 260° |
| 2026-04-26 05:43 | 33.97388 | -117.47610 | 13164 ft | 272 kts | 261° |
| 2026-04-26 05:44 | 33.97163 | -117.49864 | 12867 ft | 270 kts | 264° |
| 2026-04-26 05:44 | 33.97096 | -117.52126 | 12506 ft | 270 kts | 267° |
| 2026-04-26 05:44 | 33.97074 | -117.54366 | 12157 ft | 271 kts | 267° |
| 2026-04-26 05:44 | 33.97057 | -117.56632 | 11839 ft | 270 kts | 267° |
| 2026-04-26 05:45 | 33.97036 | -117.58886 | 11530 ft | 268 kts | 267° |
| 2026-04-26 05:45 | 33.97010 | -117.61130 | 11215 ft | 267 kts | 267° |
| 2026-04-26 05:45 | 33.96981 | -117.63354 | 10955 ft | 264 kts | 267° |
| 2026-04-26 05:45 | 33.96949 | -117.65533 | 10820 ft | 256 kts | 266° |
| 2026-04-26 05:46 | 33.96916 | -117.67657 | 10603 ft | 252 kts | 266° |
| 2026-04-26 05:46 | 33.96881 | -117.69772 | 10290 ft | 253 kts | 266° |
| 2026-04-26 05:46 | 33.96799 | -117.71883 | 9985 ft | 250 kts | 258° |
| 2026-04-26 05:46 | 33.96105 | -117.73776 | 9649 ft | 249 kts | 236° |
| 2026-04-26 05:47 | 33.95058 | -117.75388 | 9657 ft | 240 kts | 232° |
| 2026-04-26 05:47 | 33.93996 | -117.76936 | 9656 ft | 241 kts | 232° |
| 2026-04-26 05:47 | 33.92903 | -117.78509 | 9656 ft | 247 kts | 231° |
| 2026-04-26 05:47 | 33.91789 | -117.80113 | 9657 ft | 251 kts | 231° |
| 2026-04-26 05:48 | 33.90684 | -117.81699 | 9625 ft | 249 kts | 231° |
| 2026-04-26 05:48 | 33.89562 | -117.83311 | 9645 ft | 253 kts | 231° |
| 2026-04-26 05:48 | 33.88424 | -117.84945 | 9647 ft | 256 kts | 231° |
| 2026-04-26 05:48 | 33.87280 | -117.86589 | 9645 ft | 255 kts | 231° |
| 2026-04-26 05:49 | 33.86147 | -117.88215 | 9522 ft | 252 kts | 231° |
| 2026-04-26 05:49 | 33.83902 | -117.91437 | 8865 ft | 252 kts | 231° |
| 2026-04-26 05:49 | 33.82772 | -117.93063 | 8425 ft | 256 kts | 233° |
| 2026-04-26 05:50 | 33.81980 | -117.94969 | 7963 ft | 260 kts | 258° |
| 2026-04-26 05:50 | 33.82077 | -117.97125 | 7657 ft | 262 kts | 286° |
| 2026-04-26 05:50 | 33.83044 | -117.98979 | 7363 ft | 268 kts | 313° |
| 2026-04-26 05:50 | 33.84670 | -118.00095 | 7057 ft | 275 kts | 341° |
| 2026-04-26 05:51 | 33.86596 | -118.00275 | 6773 ft | 280 kts | 359° |
| 2026-04-26 05:51 | 33.88507 | -118.00116 | 6704 ft | 271 kts | 1° |
| 2026-04-26 05:51 | 33.90317 | -117.99927 | 6658 ft | 258 kts | 1° |
| 2026-04-26 05:51 | 33.92053 | -117.99731 | 6573 ft | 243 kts | 1° |
| 2026-04-26 05:52 | 33.93699 | -117.99537 | 6335 ft | 234 kts | 1° |
| 2026-04-26 05:52 | 33.95317 | -117.99346 | 5935 ft | 233 kts | 1° |
| 2026-04-26 05:52 | 33.96926 | -117.99164 | 5537 ft | 230 kts | 359° |
| 2026-04-26 05:52 | 33.98457 | -117.99495 | 5117 ft | 222 kts | 328° |
| 2026-04-26 05:53 | 33.99522 | -118.00735 | 4677 ft | 211 kts | 297° |
| 2026-04-26 05:53 | 34.00148 | -118.02328 | 4235 ft | 211 kts | 292° |
| 2026-04-26 05:53 | 34.00675 | -118.03975 | 3799 ft | 211 kts | 281° |
| 2026-04-26 05:53 | 34.00536 | -118.05705 | 3359 ft | 211 kts | 245° |
| 2026-04-26 05:54 | 33.99712 | -118.07156 | 3028 ft | 210 kts | 232° |
| 2026-04-26 05:54 | 33.98770 | -118.08526 | 2998 ft | 214 kts | 232° |
| 2026-04-26 05:54 | 33.97816 | -118.09888 | 2984 ft | 211 kts | 231° |
| 2026-04-26 05:54 | 33.97188 | -118.10783 | 2986 ft | 211 kts | 231° |
| 2026-04-26 05:55 | 33.96304 | -118.12801 | 2983 ft | 208 kts | 266° |
| 2026-04-26 05:55 | 33.96222 | -118.14545 | 2986 ft | 210 kts | 263° |
| 2026-04-26 05:55 | 33.96020 | -118.16291 | 2989 ft | 208 kts | 262° |
| 2026-04-26 05:55 | 33.95828 | -118.17971 | 2974 ft | 194 kts | 263° |
| 2026-04-26 05:56 | 33.95669 | -118.19492 | 2976 ft | 172 kts | 263° |
| 2026-04-26 05:56 | 33.95576 | -118.20399 | 2966 ft | 157 kts | 263° |
| 2026-04-26 05:56 | 33.95446 | -118.21657 | 2858 ft | 149 kts | 263° |
| 2026-04-26 05:56 | 33.95317 | -118.22904 | 2669 ft | 151 kts | 263° |
| 2026-04-26 05:57 | 33.95187 | -118.24158 | 2474 ft | 150 kts | 263° |
| 2026-04-26 05:57 | 33.95060 | -118.25388 | 2269 ft | 146 kts | 263° |
| 2026-04-26 05:57 | 33.94934 | -118.26606 | 2081 ft | 146 kts | 262° |
| 2026-04-26 05:57 | 33.94808 | -118.27826 | 1877 ft | 147 kts | 262° |
| 2026-04-26 05:58 | 33.94683 | -118.29041 | 1683 ft | 146 kts | 262° |
| 2026-04-26 05:58 | 33.94559 | -118.30241 | 1475 ft | 146 kts | 263° |
| 2026-04-26 05:58 | 33.94435 | -118.31450 | 1290 ft | 146 kts | 263° |
| 2026-04-26 05:58 | 33.94311 | -118.32660 | 1081 ft | 145 kts | 263° |
| 2026-04-26 05:59 | 33.94185 | -118.33868 | 864 ft | 148 kts | 263° |
| 2026-04-26 05:59 | 33.94059 | -118.35107 | 663 ft | 151 kts | 263° |
| 2026-04-26 05:59 | 33.93932 | -118.36343 | 463 ft | 147 kts | 263° |
| 2026-04-26 05:59 | 33.93810 | -118.37555 | 317 ft | 142 kts | 264° |
| 2026-04-26 06:00 | 33.93695 | -118.38709 | 131 ft | 132 kts | 264° |
| 2026-04-26 06:00 | 33.93593 | -118.39697 | 123 ft | 91 kts | 263° |
| 2026-04-26 06:00 | 33.93579 | -118.40219 | 125 ft | 35 kts | 289° |
| 2026-04-26 06:00 | 33.93617 | -118.40333 | 123 ft | 0 kts | 296° |
| 2026-04-26 06:01 | 33.93622 | -118.40337 | 124 ft | 3 kts | 322° |
| 2026-04-26 06:02 | 33.93670 | -118.40365 | 125 ft | 13 kts | 316° |
| 2026-04-26 06:02 | 33.93754 | -118.40429 | 122 ft | 13 kts | 349° |
| 2026-04-26 06:02 | 33.93838 | -118.40386 | 122 ft | 13 kts | 71° |
| 2026-04-26 06:02 | 33.93855 | -118.40250 | 122 ft | 20 kts | 85° |
| 2026-04-26 06:03 | 33.93870 | -118.40083 | 122 ft | 20 kts | 83° |
| 2026-04-26 06:03 | 33.93886 | -118.39931 | 125 ft | 9 kts | 83° |
| 2026-04-26 06:03 | 33.93893 | -118.39861 | 123 ft | 8 kts | 81° |
| 2026-04-26 06:03 | 33.93949 | -118.39811 | 122 ft | 16 kts | 359° |
| 2026-04-26 06:04 | 33.94060 | -118.39807 | 123 ft | 9 kts | 11° |
| 2026-04-26 06:04 | 33.94088 | -118.39798 | 122 ft | 3 kts | 25° |
| 2026-04-26 06:04 | 33.94100 | -118.39784 | 121 ft | 1 kts | 59° |
| 2026-04-26 06:04 | 33.94099 | -118.39777 | 120 ft | 1 kts | 101° |
| 2026-04-26 06:05 | 33.94098 | -118.39770 | 122 ft | 0 kts | 97° |